Airfield :
LOGIN :

Register | Disclaimer

   EN    FR    IT 

 










Legend :    VFR   Marginal VFR   IFR   Intensive IFR   Very Intensive IFR
Visi :
Ceiling :
>= 8 km
>= 3000ft
5 to 8 km
1000 to 3000 ft
1500m to 5 km
500 to 1000 ft
800 to 1500m
200 to 500 ft
< 800m
< 200 ft
Symbols :   Thunderstorms  Fog  Heavy snow  Heavy precipitations  Wind > 20 kt
SIGMETs :     Misc.  Thunderstorms  Icing  Turbulence  Mountain Waves  Volcanic Ashes







- Airport Elevation : 160 ft
- IATA code : LRT
- Download approach charts


LFRH - Lorient Lann Bihoue

CURRENT METAR :
  • 211130Z AUTO VRB02KT 9999 FEW027 24/17 Q1022 NOSIG

EXPIRED METARs :
  • 211100Z AUTO VRB03KT CAVOK 25/17 Q1022 NOSIG
  • 211030Z AUTO VRB02KT CAVOK 24/17 Q1022 NOSIG
  • 211000Z AUTO VRB03KT 9999 FEW016 23/17 Q1022 NOSIG
  • 210930Z AUTO VRB03KT CAVOK 22/17 Q1023 NOSIG
  • 210900Z AUTO VRB03KT 9999 FEW007 21/17 Q1023 NOSIG

TAF TAF LFRH
Valid from the 21 at 12:00 until the 22 at 12:00 UTC


211100Z 2112/2212 15005KT 9999 FEW022
PROB30
TEMPO 2112/2117 BKN025
BECMG 2117/2119 VRB01KT CAVOK
BECMG 2122/2124 07010KT
PROB30
TEMPO 2208/2210 12015G25KT
BECMG 2210/2212 13008KT
No reported NOTAMs for that airfield.



MET'MAP, your aeronautical weather chart ! - Copyright ORBIFLY December 2007 - Disclaimer

ORBIFLY MET'MAP TEAM :

Programming & Development : Alexandra Zaïnal
Concept & Development : Baudouin d'Aumeries
Co-Development & Prog : Marc-Olivier Méhu
Technical & hardware support : Manuel Goepfert

Contact : metmap@orbifly.com




SOURCES & CREDITS :

   NOAA